SWA4473 KSTL-KLAS
Flight info
| Callsign | SWA4473 |
|---|---|
| Flight time | 3h 9m |
| Altitude | 30000 |
| Route | BRAKK5 HLV MCI J80 GLD J146 DICEE TYEGR CHOWW4 |
| Aircraft | B38M/M-SDE1FGHILORVWXY/HB1 |
Departure
| Time | 2026-05-05 02:08 |
|---|---|
| Airport | St. Louis Lambert International Airport (KSTL) |
Arrival
| Time | 2026-05-05 05:17 |
|---|---|
| Airport | Harry Reid International Airport (KLAS) |
| Time | Latitude | Longitude | Altitude | Speed | Heading |
|---|---|---|---|---|---|
| 2026-05-05 01:51 | 38.73846 | -90.35669 | 575 ft | 0 kts | 187° |
| 2026-05-05 01:56 | 38.73847 | -90.35669 | 575 ft | 2 kts | 187° |
| 2026-05-05 01:56 | 38.73872 | -90.35665 | 576 ft | 4 kts | 184° |
| 2026-05-05 01:56 | 38.73899 | -90.35663 | 576 ft | 3 kts | 182° |
| 2026-05-05 01:57 | 38.73907 | -90.35662 | 577 ft | 0 kts | 182° |
| 2026-05-05 02:01 | 38.73906 | -90.35651 | 575 ft | 2 kts | 77° |
| 2026-05-05 02:01 | 38.73936 | -90.35636 | 578 ft | 8 kts | 18° |
| 2026-05-05 02:02 | 38.73994 | -90.35603 | 581 ft | 2 kts | 30° |
| 2026-05-05 02:02 | 38.73995 | -90.35602 | 578 ft | 1 kts | 30° |
| 2026-05-05 02:02 | 38.74003 | -90.35596 | 578 ft | 2 kts | 30° |
| 2026-05-05 02:02 | 38.74024 | -90.35581 | 578 ft | 7 kts | 30° |
| 2026-05-05 02:03 | 38.74099 | -90.35586 | 579 ft | 16 kts | 317° |
| 2026-05-05 02:03 | 38.74175 | -90.35733 | 582 ft | 22 kts | 303° |
| 2026-05-05 02:03 | 38.74260 | -90.35906 | 577 ft | 24 kts | 302° |
| 2026-05-05 02:03 | 38.74353 | -90.36094 | 573 ft | 26 kts | 303° |
| 2026-05-05 02:04 | 38.74456 | -90.36305 | 573 ft | 29 kts | 301° |
| 2026-05-05 02:04 | 38.74572 | -90.36538 | 560 ft | 32 kts | 302° |
| 2026-05-05 02:04 | 38.74694 | -90.36787 | 561 ft | 34 kts | 302° |
| 2026-05-05 02:04 | 38.74820 | -90.37038 | 560 ft | 34 kts | 302° |
| 2026-05-05 02:05 | 38.74944 | -90.37295 | 557 ft | 34 kts | 302° |
| 2026-05-05 02:05 | 38.75075 | -90.37560 | 559 ft | 36 kts | 303° |
| 2026-05-05 02:05 | 38.75210 | -90.37830 | 555 ft | 36 kts | 303° |
| 2026-05-05 02:05 | 38.75267 | -90.37947 | 552 ft | 7 kts | 303° |
| 2026-05-05 02:06 | 38.75304 | -90.37958 | 549 ft | 6 kts | 15° |
| 2026-05-05 02:06 | 38.75350 | -90.37931 | 549 ft | 9 kts | 32° |
| 2026-05-05 02:06 | 38.75377 | -90.37890 | 548 ft | 4 kts | 103° |
| 2026-05-05 02:06 | 38.75365 | -90.37861 | 548 ft | 0 kts | 122° |
| 2026-05-05 02:07 | 38.75350 | -90.37831 | 548 ft | 25 kts | 124° |
| 2026-05-05 02:07 | 38.75101 | -90.37330 | 556 ft | 106 kts | 122° |
| 2026-05-05 02:07 | 38.74576 | -90.36272 | 569 ft | 172 kts | 122° |
| 2026-05-05 02:07 | 38.73907 | -90.34802 | 953 ft | 200 kts | 120° |
| 2026-05-05 02:08 | 38.73237 | -90.33265 | 1995 ft | 197 kts | 126° |
| 2026-05-05 02:08 | 38.72527 | -90.31764 | 2794 ft | 198 kts | 128° |
| 2026-05-05 02:08 | 38.71760 | -90.30262 | 3482 ft | 202 kts | 128° |
| 2026-05-05 02:08 | 38.70915 | -90.28797 | 4094 ft | 204 kts | 140° |
| 2026-05-05 02:09 | 38.69742 | -90.27833 | 4548 ft | 202 kts | 172° |
| 2026-05-05 02:09 | 38.68487 | -90.27887 | 5458 ft | 168 kts | 206° |
| 2026-05-05 02:09 | 38.67346 | -90.28379 | 6051 ft | 179 kts | 203° |
| 2026-05-05 02:09 | 38.66122 | -90.28695 | 6704 ft | 185 kts | 200° |
| 2026-05-05 02:10 | 38.64859 | -90.29032 | 7376 ft | 185 kts | 206° |
| 2026-05-05 02:10 | 38.63759 | -90.29869 | 7709 ft | 197 kts | 233° |
| 2026-05-05 02:10 | 38.62905 | -90.31375 | 8025 ft | 216 kts | 238° |
| 2026-05-05 02:10 | 38.61995 | -90.32994 | 8598 ft | 234 kts | 239° |
| 2026-05-05 02:11 | 38.61111 | -90.34831 | 9100 ft | 250 kts | 252° |
| 2026-05-05 02:11 | 38.60860 | -90.37060 | 9695 ft | 260 kts | 275° |
| 2026-05-05 02:11 | 38.61079 | -90.39393 | 10384 ft | 270 kts | 277° |
| 2026-05-05 02:11 | 38.61336 | -90.41869 | 10792 ft | 290 kts | 278° |
| 2026-05-05 02:12 | 38.61634 | -90.44516 | 11130 ft | 311 kts | 278° |
| 2026-05-05 02:12 | 38.62795 | -90.50095 | 12007 ft | 341 kts | 298° |
| 2026-05-05 02:12 | 38.64005 | -90.52746 | 12670 ft | 347 kts | 298° |
| 2026-05-05 02:13 | 38.65230 | -90.55417 | 13464 ft | 349 kts | 298° |
| 2026-05-05 02:13 | 38.66474 | -90.58107 | 14121 ft | 353 kts | 298° |
| 2026-05-05 02:13 | 38.67731 | -90.60816 | 14770 ft | 356 kts | 299° |
| 2026-05-05 02:13 | 38.69093 | -90.63492 | 15400 ft | 361 kts | 302° |
| 2026-05-05 02:14 | 38.70519 | -90.66157 | 16033 ft | 364 kts | 302° |
| 2026-05-05 02:14 | 38.71927 | -90.68809 | 16655 ft | 367 kts | 302° |
| 2026-05-05 02:14 | 38.73366 | -90.71530 | 17260 ft | 370 kts | 302° |
| 2026-05-05 02:14 | 38.74819 | -90.74283 | 17808 ft | 375 kts | 302° |
| 2026-05-05 02:15 | 38.76284 | -90.77062 | 18055 ft | 377 kts | 302° |
| 2026-05-05 02:15 | 38.77751 | -90.79846 | 18625 ft | 378 kts | 302° |
| 2026-05-05 02:15 | 38.79229 | -90.82658 | 19126 ft | 381 kts | 302° |
| 2026-05-05 02:15 | 38.80716 | -90.85486 | 19648 ft | 384 kts | 302° |
| 2026-05-05 02:16 | 38.82214 | -90.88338 | 20147 ft | 388 kts | 302° |
| 2026-05-05 02:16 | 38.83483 | -90.90754 | 20565 ft | 390 kts | 302° |
| 2026-05-05 02:16 | 38.85015 | -90.93678 | 21056 ft | 393 kts | 302° |
| 2026-05-05 02:16 | 38.86547 | -90.96601 | 21542 ft | 396 kts | 302° |
| 2026-05-05 02:17 | 38.88093 | -90.99555 | 22022 ft | 400 kts | 302° |
| 2026-05-05 02:17 | 38.89124 | -91.01527 | 22331 ft | 402 kts | 302° |
| 2026-05-05 02:17 | 38.90688 | -91.04520 | 22804 ft | 405 kts | 302° |
| 2026-05-05 02:17 | 38.92262 | -91.07533 | 23264 ft | 408 kts | 302° |
| 2026-05-05 02:18 | 38.93844 | -91.10567 | 23645 ft | 411 kts | 302° |
| 2026-05-05 02:18 | 38.95441 | -91.13631 | 24073 ft | 412 kts | 301° |
| 2026-05-05 02:18 | 38.96707 | -91.16864 | 24472 ft | 410 kts | 286° |
| 2026-05-05 02:18 | 38.97365 | -91.20429 | 24884 ft | 411 kts | 282° |
| 2026-05-05 02:19 | 38.97981 | -91.24074 | 25277 ft | 413 kts | 281° |
| 2026-05-05 02:19 | 38.98565 | -91.27658 | 25682 ft | 414 kts | 281° |
| 2026-05-05 02:19 | 38.99140 | -91.31287 | 26075 ft | 416 kts | 281° |
| 2026-05-05 02:19 | 38.99709 | -91.34948 | 26450 ft | 418 kts | 281° |
| 2026-05-05 02:20 | 39.00271 | -91.38619 | 26820 ft | 419 kts | 281° |
| 2026-05-05 02:20 | 39.00833 | -91.42301 | 27217 ft | 420 kts | 280° |
| 2026-05-05 02:20 | 39.01396 | -91.46000 | 27590 ft | 422 kts | 280° |
| 2026-05-05 02:20 | 39.01959 | -91.49708 | 27957 ft | 423 kts | 280° |
| 2026-05-05 02:21 | 39.02522 | -91.53420 | 28433 ft | 422 kts | 280° |
| 2026-05-05 02:21 | 39.03081 | -91.57116 | 28987 ft | 419 kts | 280° |
| 2026-05-05 02:21 | 39.03634 | -91.60782 | 29521 ft | 417 kts | 280° |
| 2026-05-05 02:21 | 39.04186 | -91.64450 | 29721 ft | 417 kts | 280° |
| 2026-05-05 02:22 | 39.04734 | -91.68097 | 29718 ft | 414 kts | 280° |
| 2026-05-05 02:22 | 39.05823 | -91.75368 | 29705 ft | 413 kts | 280° |
| 2026-05-05 02:23 | 39.06908 | -91.82641 | 29726 ft | 413 kts | 280° |
| 2026-05-05 02:23 | 39.07985 | -91.89902 | 29713 ft | 413 kts | 280° |
| 2026-05-05 02:24 | 39.09058 | -91.97163 | 29707 ft | 413 kts | 280° |
| 2026-05-05 02:24 | 39.10125 | -92.04423 | 29707 ft | 412 kts | 280° |
| 2026-05-05 02:25 | 39.11187 | -92.11678 | 29702 ft | 412 kts | 279° |
| 2026-05-05 02:25 | 39.11738 | -92.19016 | 29698 ft | 412 kts | 275° |
| 2026-05-05 02:26 | 39.12279 | -92.26367 | 29698 ft | 412 kts | 276° |
| 2026-05-05 02:26 | 39.12832 | -92.33659 | 29697 ft | 412 kts | 276° |
| 2026-05-05 02:27 | 39.13385 | -92.40996 | 29697 ft | 411 kts | 275° |
| 2026-05-05 02:27 | 39.13935 | -92.48334 | 29703 ft | 412 kts | 275° |
| 2026-05-05 02:28 | 39.14480 | -92.55677 | 29702 ft | 411 kts | 275° |
| 2026-05-05 02:28 | 39.15020 | -92.63023 | 29707 ft | 412 kts | 275° |
| 2026-05-05 02:29 | 39.15542 | -92.70169 | 29702 ft | 412 kts | 275° |
| 2026-05-05 02:29 | 39.16073 | -92.77522 | 29708 ft | 413 kts | 275° |
| 2026-05-05 02:30 | 39.16574 | -92.84499 | 29707 ft | 414 kts | 275° |
| 2026-05-05 02:30 | 39.17099 | -92.91889 | 29710 ft | 415 kts | 275° |
| 2026-05-05 02:31 | 39.17620 | -92.99294 | 29728 ft | 415 kts | 275° |
| 2026-05-05 02:31 | 39.18139 | -93.06735 | 29736 ft | 417 kts | 275° |
| 2026-05-05 02:32 | 39.18654 | -93.14177 | 29732 ft | 418 kts | 275° |
| 2026-05-05 02:32 | 39.19166 | -93.21648 | 29730 ft | 418 kts | 275° |
| 2026-05-05 02:33 | 39.19671 | -93.29104 | 29715 ft | 419 kts | 274° |
| 2026-05-05 02:33 | 39.20177 | -93.36627 | 29716 ft | 420 kts | 274° |
| 2026-05-05 02:34 | 39.20678 | -93.44160 | 29708 ft | 421 kts | 274° |
| 2026-05-05 02:34 | 39.21163 | -93.51513 | 29711 ft | 421 kts | 274° |
| 2026-05-05 02:35 | 39.21654 | -93.59041 | 29690 ft | 421 kts | 274° |
| 2026-05-05 02:35 | 39.22140 | -93.66564 | 29693 ft | 421 kts | 274° |
| 2026-05-05 02:36 | 39.22623 | -93.74103 | 29683 ft | 421 kts | 274° |
| 2026-05-05 02:36 | 39.23099 | -93.81632 | 29675 ft | 421 kts | 274° |
| 2026-05-05 02:37 | 39.23571 | -93.89169 | 29678 ft | 421 kts | 274° |
| 2026-05-05 02:37 | 39.24038 | -93.96712 | 29681 ft | 422 kts | 274° |
| 2026-05-05 02:38 | 39.24501 | -94.04264 | 29699 ft | 422 kts | 274° |
| 2026-05-05 02:38 | 39.24959 | -94.11801 | 29690 ft | 422 kts | 274° |
| 2026-05-05 02:39 | 39.25411 | -94.19323 | 29701 ft | 422 kts | 274° |
| 2026-05-05 02:39 | 39.25859 | -94.26886 | 29707 ft | 423 kts | 274° |
| 2026-05-05 02:40 | 39.26304 | -94.34454 | 29697 ft | 423 kts | 274° |
| 2026-05-05 02:40 | 39.26685 | -94.41011 | 29694 ft | 423 kts | 274° |
| 2026-05-05 02:41 | 39.27121 | -94.48594 | 29696 ft | 424 kts | 274° |
| 2026-05-05 02:41 | 39.27555 | -94.56193 | 29699 ft | 425 kts | 274° |
| 2026-05-05 02:42 | 39.27985 | -94.63814 | 29699 ft | 425 kts | 274° |
| 2026-05-05 02:42 | 39.28409 | -94.71418 | 29696 ft | 425 kts | 274° |
| 2026-05-05 02:43 | 39.28574 | -94.79009 | 29699 ft | 425 kts | 271° |
| 2026-05-05 02:43 | 39.28704 | -94.86643 | 29698 ft | 425 kts | 271° |
| 2026-05-05 02:44 | 39.28839 | -94.94282 | 29694 ft | 425 kts | 271° |
| 2026-05-05 02:44 | 39.28969 | -95.01907 | 29692 ft | 425 kts | 271° |
| 2026-05-05 02:45 | 39.29095 | -95.09520 | 29691 ft | 424 kts | 271° |
| 2026-05-05 02:45 | 39.29215 | -95.17137 | 29689 ft | 424 kts | 271° |
| 2026-05-05 02:46 | 39.29330 | -95.24760 | 29687 ft | 424 kts | 271° |
| 2026-05-05 02:46 | 39.29441 | -95.32379 | 29688 ft | 424 kts | 271° |
| 2026-05-05 02:47 | 39.29547 | -95.39999 | 29690 ft | 424 kts | 271° |
| 2026-05-05 02:47 | 39.29647 | -95.47564 | 29690 ft | 424 kts | 271° |
| 2026-05-05 02:48 | 39.29742 | -95.55172 | 29705 ft | 423 kts | 271° |
| 2026-05-05 02:48 | 39.29832 | -95.62770 | 29691 ft | 423 kts | 271° |
| 2026-05-05 02:49 | 39.29918 | -95.70344 | 29695 ft | 422 kts | 271° |
| 2026-05-05 02:49 | 39.29998 | -95.77901 | 29692 ft | 421 kts | 271° |
| 2026-05-05 02:50 | 39.30073 | -95.85446 | 29698 ft | 420 kts | 271° |
| 2026-05-05 02:50 | 39.30143 | -95.92985 | 29705 ft | 419 kts | 271° |
| 2026-05-05 02:51 | 39.30208 | -96.00456 | 29695 ft | 418 kts | 271° |
| 2026-05-05 02:51 | 39.30269 | -96.07951 | 29692 ft | 417 kts | 271° |
| 2026-05-05 02:52 | 39.30324 | -96.15432 | 29697 ft | 416 kts | 271° |
| 2026-05-05 02:52 | 39.30368 | -96.22898 | 29695 ft | 415 kts | 271° |
| 2026-05-05 02:53 | 39.30409 | -96.30349 | 29693 ft | 415 kts | 271° |
| 2026-05-05 02:53 | 39.30446 | -96.37803 | 29693 ft | 414 kts | 271° |
| 2026-05-05 02:54 | 39.30477 | -96.45199 | 29693 ft | 414 kts | 271° |
| 2026-05-05 02:54 | 39.30504 | -96.52623 | 29690 ft | 413 kts | 271° |
| 2026-05-05 02:55 | 39.30526 | -96.60034 | 29693 ft | 413 kts | 271° |
| 2026-05-05 02:55 | 39.30544 | -96.67444 | 29695 ft | 412 kts | 271° |
| 2026-05-05 02:56 | 39.30557 | -96.74849 | 29698 ft | 412 kts | 271° |
| 2026-05-05 02:56 | 39.30565 | -96.82242 | 29695 ft | 412 kts | 271° |
| 2026-05-05 02:57 | 39.30568 | -96.89651 | 29695 ft | 412 kts | 271° |
| 2026-05-05 02:57 | 39.30567 | -96.97060 | 29713 ft | 413 kts | 270° |
| 2026-05-05 02:58 | 39.30561 | -97.04469 | 29712 ft | 413 kts | 270° |
| 2026-05-05 02:58 | 39.30550 | -97.11894 | 29711 ft | 414 kts | 270° |
| 2026-05-05 02:59 | 39.30535 | -97.19288 | 29708 ft | 414 kts | 270° |
| 2026-05-05 02:59 | 39.30514 | -97.26712 | 29697 ft | 414 kts | 270° |
| 2026-05-05 03:00 | 39.30490 | -97.34171 | 29711 ft | 415 kts | 270° |
| 2026-05-05 03:00 | 39.30461 | -97.41624 | 29720 ft | 415 kts | 270° |
| 2026-05-05 03:01 | 39.30428 | -97.49075 | 29724 ft | 415 kts | 270° |
| 2026-05-05 03:01 | 39.30387 | -97.56547 | 29724 ft | 416 kts | 270° |
| 2026-05-05 03:02 | 39.30343 | -97.64009 | 29724 ft | 416 kts | 270° |
| 2026-05-05 03:02 | 39.30302 | -97.70235 | 29745 ft | 417 kts | 270° |
| 2026-05-05 03:03 | 39.30240 | -97.78951 | 29740 ft | 418 kts | 270° |
| 2026-05-05 03:03 | 39.30181 | -97.86453 | 29731 ft | 418 kts | 270° |
| 2026-05-05 03:04 | 39.30128 | -97.92764 | 29721 ft | 419 kts | 270° |
| 2026-05-05 03:04 | 39.30061 | -98.00240 | 29708 ft | 419 kts | 270° |
| 2026-05-05 03:05 | 39.29989 | -98.07785 | 29719 ft | 420 kts | 270° |
| 2026-05-05 03:05 | 39.29911 | -98.15326 | 29716 ft | 420 kts | 270° |
| 2026-05-05 03:06 | 39.29829 | -98.22863 | 29711 ft | 420 kts | 270° |
| 2026-05-05 03:06 | 39.29742 | -98.30396 | 29715 ft | 420 kts | 270° |
| 2026-05-05 03:07 | 39.29650 | -98.37897 | 29711 ft | 420 kts | 270° |
| 2026-05-05 03:07 | 39.29553 | -98.45431 | 29717 ft | 419 kts | 270° |
| 2026-05-05 03:08 | 39.29452 | -98.52952 | 29720 ft | 418 kts | 270° |
| 2026-05-05 03:08 | 39.29346 | -98.60437 | 29719 ft | 417 kts | 270° |
| 2026-05-05 03:09 | 39.29235 | -98.67916 | 29716 ft | 415 kts | 270° |
| 2026-05-05 03:09 | 39.29121 | -98.75351 | 29723 ft | 414 kts | 270° |
| 2026-05-05 03:10 | 39.29002 | -98.82739 | 29725 ft | 413 kts | 271° |
| 2026-05-05 03:10 | 39.28879 | -98.90133 | 29730 ft | 411 kts | 271° |
| 2026-05-05 03:11 | 39.28751 | -98.97508 | 29733 ft | 411 kts | 270° |
| 2026-05-05 03:11 | 39.28619 | -99.04873 | 29730 ft | 410 kts | 270° |
| 2026-05-05 03:12 | 39.28482 | -99.12238 | 29737 ft | 410 kts | 270° |
| 2026-05-05 03:12 | 39.28340 | -99.19591 | 29740 ft | 409 kts | 270° |
| 2026-05-05 03:13 | 39.28195 | -99.26924 | 29737 ft | 408 kts | 270° |
| 2026-05-05 03:13 | 39.28044 | -99.34269 | 29738 ft | 408 kts | 270° |
| 2026-05-05 03:14 | 39.27890 | -99.41598 | 29747 ft | 408 kts | 270° |
| 2026-05-05 03:14 | 39.27732 | -99.48881 | 29762 ft | 409 kts | 270° |
| 2026-05-05 03:15 | 39.27567 | -99.56214 | 29781 ft | 409 kts | 270° |
| 2026-05-05 03:15 | 39.27399 | -99.63546 | 29793 ft | 409 kts | 270° |
| 2026-05-05 03:16 | 39.27226 | -99.70887 | 29806 ft | 409 kts | 270° |
| 2026-05-05 03:16 | 39.27049 | -99.78209 | 29815 ft | 409 kts | 270° |
| 2026-05-05 03:17 | 39.26865 | -99.85566 | 29815 ft | 409 kts | 270° |
| 2026-05-05 03:17 | 39.26678 | -99.92899 | 29809 ft | 409 kts | 270° |
| 2026-05-05 03:18 | 39.26488 | -100.00239 | 29792 ft | 409 kts | 269° |
| 2026-05-05 03:18 | 39.26295 | -100.07529 | 29780 ft | 409 kts | 269° |
| 2026-05-05 03:19 | 39.25995 | -100.18531 | 29750 ft | 409 kts | 269° |
| 2026-05-05 03:19 | 39.26200 | -100.25831 | 29747 ft | 407 kts | 277° |
| 2026-05-05 03:20 | 39.26866 | -100.33107 | 29743 ft | 407 kts | 277° |
| 2026-05-05 03:20 | 39.27541 | -100.40367 | 29739 ft | 408 kts | 277° |
| 2026-05-05 03:21 | 39.28213 | -100.47630 | 29758 ft | 407 kts | 277° |
| 2026-05-05 03:21 | 39.28876 | -100.54845 | 29761 ft | 407 kts | 277° |
| 2026-05-05 03:22 | 39.29540 | -100.62108 | 29769 ft | 407 kts | 277° |
| 2026-05-05 03:22 | 39.30199 | -100.69377 | 29791 ft | 407 kts | 277° |
| 2026-05-05 03:23 | 39.30854 | -100.76642 | 29792 ft | 407 kts | 276° |
| 2026-05-05 03:23 | 39.31504 | -100.83909 | 29815 ft | 407 kts | 276° |
| 2026-05-05 03:24 | 39.32148 | -100.91171 | 29829 ft | 407 kts | 276° |
| 2026-05-05 03:24 | 39.32789 | -100.98439 | 29853 ft | 407 kts | 276° |
| 2026-05-05 03:25 | 39.33425 | -101.05709 | 29859 ft | 407 kts | 276° |
| 2026-05-05 03:25 | 39.34057 | -101.12982 | 29851 ft | 408 kts | 276° |
| 2026-05-05 03:26 | 39.34686 | -101.20274 | 29836 ft | 408 kts | 276° |
| 2026-05-05 03:26 | 39.35309 | -101.27556 | 29816 ft | 408 kts | 276° |
| 2026-05-05 03:27 | 39.35928 | -101.34844 | 29797 ft | 408 kts | 276° |
| 2026-05-05 03:27 | 39.36535 | -101.42044 | 29782 ft | 408 kts | 276° |
| 2026-05-05 03:28 | 39.37134 | -101.49199 | 29811 ft | 408 kts | 276° |
| 2026-05-05 03:28 | 39.37740 | -101.56499 | 29833 ft | 408 kts | 276° |
| 2026-05-05 03:29 | 39.38304 | -101.63322 | 29831 ft | 409 kts | 276° |
| 2026-05-05 03:29 | 39.38512 | -101.70626 | 29830 ft | 410 kts | 262° |
| 2026-05-05 03:30 | 39.37463 | -101.77888 | 29832 ft | 411 kts | 262° |
| 2026-05-05 03:30 | 39.36382 | -101.85160 | 29823 ft | 411 kts | 261° |
| 2026-05-05 03:31 | 39.35286 | -101.92396 | 29797 ft | 411 kts | 261° |
| 2026-05-05 03:31 | 39.34186 | -101.99604 | 29777 ft | 411 kts | 261° |
| 2026-05-05 03:32 | 39.33078 | -102.06842 | 29807 ft | 411 kts | 261° |
| 2026-05-05 03:32 | 39.31964 | -102.14081 | 29842 ft | 410 kts | 261° |
| 2026-05-05 03:33 | 39.30847 | -102.21313 | 29857 ft | 410 kts | 261° |
| 2026-05-05 03:33 | 39.29725 | -102.28544 | 29864 ft | 410 kts | 261° |
| 2026-05-05 03:34 | 39.28603 | -102.35743 | 29866 ft | 410 kts | 261° |
| 2026-05-05 03:34 | 39.27472 | -102.42968 | 29846 ft | 410 kts | 261° |
| 2026-05-05 03:35 | 39.26337 | -102.50191 | 29819 ft | 411 kts | 261° |
| 2026-05-05 03:35 | 39.25195 | -102.57424 | 29793 ft | 410 kts | 261° |
| 2026-05-05 03:36 | 39.24051 | -102.64641 | 29771 ft | 411 kts | 261° |
| 2026-05-05 03:36 | 39.22902 | -102.71861 | 29750 ft | 411 kts | 261° |
| 2026-05-05 03:37 | 39.21749 | -102.79076 | 29737 ft | 411 kts | 261° |
| 2026-05-05 03:37 | 39.20587 | -102.86307 | 29742 ft | 411 kts | 260° |
| 2026-05-05 03:38 | 39.19431 | -102.93483 | 29738 ft | 411 kts | 260° |
| 2026-05-05 03:38 | 39.18261 | -103.00709 | 29742 ft | 411 kts | 260° |
| 2026-05-05 03:39 | 39.17088 | -103.07929 | 29740 ft | 411 kts | 260° |
| 2026-05-05 03:39 | 39.15910 | -103.15148 | 29743 ft | 411 kts | 260° |
| 2026-05-05 03:40 | 39.14729 | -103.22351 | 29748 ft | 411 kts | 260° |
| 2026-05-05 03:40 | 39.13544 | -103.29553 | 29763 ft | 410 kts | 260° |
| 2026-05-05 03:41 | 39.12366 | -103.36684 | 29799 ft | 410 kts | 260° |
| 2026-05-05 03:41 | 39.11173 | -103.43873 | 29817 ft | 410 kts | 260° |
| 2026-05-05 03:42 | 39.09977 | -103.51056 | 29837 ft | 410 kts | 260° |
| 2026-05-05 03:42 | 39.08779 | -103.58219 | 29844 ft | 410 kts | 260° |
| 2026-05-05 03:43 | 39.07573 | -103.65404 | 29852 ft | 410 kts | 260° |
| 2026-05-05 03:43 | 39.06365 | -103.72569 | 29841 ft | 410 kts | 260° |
| 2026-05-05 03:44 | 39.05151 | -103.79742 | 29834 ft | 410 kts | 259° |
| 2026-05-05 03:44 | 39.03935 | -103.86899 | 29819 ft | 410 kts | 259° |
| 2026-05-05 03:45 | 39.02714 | -103.94057 | 29809 ft | 410 kts | 259° |
| 2026-05-05 03:45 | 39.01486 | -104.01231 | 29805 ft | 410 kts | 259° |
| 2026-05-05 03:46 | 39.00253 | -104.08399 | 29809 ft | 411 kts | 259° |
| 2026-05-05 03:46 | 38.99025 | -104.15519 | 29841 ft | 410 kts | 259° |
| 2026-05-05 03:47 | 38.97784 | -104.22681 | 29880 ft | 410 kts | 259° |
| 2026-05-05 03:47 | 38.96539 | -104.29835 | 29920 ft | 410 kts | 259° |
| 2026-05-05 03:48 | 38.95297 | -104.36950 | 29952 ft | 409 kts | 259° |
| 2026-05-05 03:48 | 38.94045 | -104.44093 | 29979 ft | 409 kts | 259° |
| 2026-05-05 03:49 | 38.93027 | -104.49881 | 29990 ft | 408 kts | 259° |
| 2026-05-05 03:49 | 38.91772 | -104.56992 | 29986 ft | 408 kts | 259° |
| 2026-05-05 03:50 | 38.90514 | -104.64093 | 29992 ft | 408 kts | 259° |
| 2026-05-05 03:50 | 38.89255 | -104.71179 | 29955 ft | 407 kts | 259° |
| 2026-05-05 03:51 | 38.87991 | -104.78259 | 29947 ft | 407 kts | 259° |
| 2026-05-05 03:51 | 38.86725 | -104.85323 | 29937 ft | 406 kts | 259° |
| 2026-05-05 03:52 | 38.85463 | -104.92345 | 29924 ft | 406 kts | 259° |
| 2026-05-05 03:52 | 38.84190 | -104.99396 | 29931 ft | 406 kts | 259° |
| 2026-05-05 03:53 | 38.82913 | -105.06444 | 29932 ft | 405 kts | 259° |
| 2026-05-05 03:53 | 38.81631 | -105.13498 | 29894 ft | 405 kts | 259° |
| 2026-05-05 03:54 | 38.80348 | -105.20525 | 29868 ft | 405 kts | 259° |
| 2026-05-05 03:54 | 38.79062 | -105.27550 | 29856 ft | 404 kts | 259° |
| 2026-05-05 03:55 | 38.77773 | -105.34561 | 29847 ft | 404 kts | 259° |
| 2026-05-05 03:55 | 38.76500 | -105.41463 | 29827 ft | 404 kts | 259° |
| 2026-05-05 03:56 | 38.75200 | -105.48483 | 29828 ft | 404 kts | 258° |
| 2026-05-05 03:56 | 38.73913 | -105.55411 | 29829 ft | 404 kts | 258° |
| 2026-05-05 03:57 | 38.72610 | -105.62399 | 29817 ft | 404 kts | 258° |
| 2026-05-05 03:57 | 38.71391 | -105.68919 | 29807 ft | 404 kts | 258° |
| 2026-05-05 03:58 | 38.70075 | -105.75924 | 29849 ft | 404 kts | 258° |
| 2026-05-05 03:58 | 38.68759 | -105.82912 | 29884 ft | 404 kts | 258° |
| 2026-05-05 03:59 | 38.67437 | -105.89902 | 29917 ft | 404 kts | 258° |
| 2026-05-05 03:59 | 38.66111 | -105.96891 | 29939 ft | 404 kts | 258° |
| 2026-05-05 04:00 | 38.64784 | -106.03864 | 29959 ft | 403 kts | 258° |
| 2026-05-05 04:00 | 38.63461 | -106.10788 | 29954 ft | 403 kts | 258° |
| 2026-05-05 04:01 | 38.62127 | -106.17747 | 29944 ft | 403 kts | 258° |
| 2026-05-05 04:01 | 38.60791 | -106.24691 | 29940 ft | 402 kts | 258° |
| 2026-05-05 04:02 | 38.59454 | -106.31618 | 29900 ft | 399 kts | 258° |
| 2026-05-05 04:02 | 38.58118 | -106.38512 | 29868 ft | 399 kts | 258° |
| 2026-05-05 04:03 | 38.56781 | -106.45387 | 29879 ft | 398 kts | 258° |
| 2026-05-05 04:03 | 38.55446 | -106.52241 | 29895 ft | 397 kts | 258° |
| 2026-05-05 04:04 | 38.54117 | -106.59036 | 29932 ft | 397 kts | 257° |
| 2026-05-05 04:04 | 38.52782 | -106.65851 | 29961 ft | 395 kts | 257° |
| 2026-05-05 04:05 | 38.51442 | -106.72664 | 29993 ft | 396 kts | 257° |
| 2026-05-05 04:05 | 38.50098 | -106.79476 | 30005 ft | 395 kts | 257° |
| 2026-05-05 04:06 | 38.48750 | -106.86285 | 30029 ft | 395 kts | 257° |
| 2026-05-05 04:06 | 38.47402 | -106.93073 | 30034 ft | 394 kts | 257° |
| 2026-05-05 04:07 | 38.46049 | -106.99865 | 30031 ft | 395 kts | 257° |
| 2026-05-05 04:07 | 38.44628 | -107.06628 | 29967 ft | 397 kts | 249° |
| 2026-05-05 04:08 | 38.42274 | -107.13005 | 29972 ft | 398 kts | 249° |
| 2026-05-05 04:08 | 38.40097 | -107.19484 | 29931 ft | 397 kts | 250° |
| 2026-05-05 04:09 | 38.37956 | -107.25934 | 29918 ft | 397 kts | 249° |
| 2026-05-05 04:09 | 38.35788 | -107.32460 | 29866 ft | 397 kts | 249° |
| 2026-05-05 04:10 | 38.33646 | -107.38896 | 29863 ft | 397 kts | 249° |
| 2026-05-05 04:10 | 38.31486 | -107.45374 | 29882 ft | 397 kts | 249° |
| 2026-05-05 04:11 | 38.29321 | -107.51846 | 29865 ft | 397 kts | 249° |
| 2026-05-05 04:11 | 38.27153 | -107.58317 | 29850 ft | 396 kts | 249° |
| 2026-05-05 04:12 | 38.24988 | -107.64763 | 29860 ft | 397 kts | 249° |
| 2026-05-05 04:12 | 38.22811 | -107.71232 | 29863 ft | 397 kts | 249° |
| 2026-05-05 04:13 | 38.21047 | -107.76462 | 29898 ft | 397 kts | 249° |
| 2026-05-05 04:13 | 38.18867 | -107.82916 | 29957 ft | 398 kts | 249° |
| 2026-05-05 04:14 | 38.16680 | -107.89373 | 29984 ft | 397 kts | 249° |
| 2026-05-05 04:14 | 38.14503 | -107.95785 | 30014 ft | 398 kts | 249° |
| 2026-05-05 04:15 | 38.12307 | -108.02243 | 30007 ft | 398 kts | 249° |
| 2026-05-05 04:15 | 38.10105 | -108.08702 | 30002 ft | 398 kts | 249° |
| 2026-05-05 04:16 | 38.07902 | -108.15150 | 29973 ft | 399 kts | 249° |
| 2026-05-05 04:16 | 38.05689 | -108.21610 | 29944 ft | 399 kts | 248° |
| 2026-05-05 04:17 | 38.03469 | -108.28080 | 29897 ft | 400 kts | 248° |
| 2026-05-05 04:17 | 38.01262 | -108.34498 | 29836 ft | 400 kts | 248° |
| 2026-05-05 04:18 | 37.99033 | -108.40966 | 29826 ft | 400 kts | 248° |
| 2026-05-05 04:18 | 37.96799 | -108.47431 | 29813 ft | 400 kts | 248° |
| 2026-05-05 04:19 | 37.94561 | -108.53897 | 29812 ft | 401 kts | 248° |
| 2026-05-05 04:19 | 37.92433 | -108.60030 | 29814 ft | 401 kts | 248° |
| 2026-05-05 04:20 | 37.90180 | -108.66511 | 29808 ft | 402 kts | 248° |
| 2026-05-05 04:20 | 37.87921 | -108.72993 | 29819 ft | 403 kts | 248° |
| 2026-05-05 04:21 | 37.85657 | -108.79479 | 29812 ft | 403 kts | 248° |
| 2026-05-05 04:21 | 37.83404 | -108.85922 | 29812 ft | 403 kts | 248° |
| 2026-05-05 04:22 | 37.81136 | -108.92414 | 29806 ft | 403 kts | 249° |
| 2026-05-05 04:22 | 37.79503 | -108.99235 | 29808 ft | 403 kts | 253° |
| 2026-05-05 04:23 | 37.77862 | -109.05978 | 29805 ft | 404 kts | 253° |
| 2026-05-05 04:23 | 37.76182 | -109.12771 | 29813 ft | 405 kts | 253° |
| 2026-05-05 04:24 | 37.74494 | -109.19566 | 29838 ft | 406 kts | 253° |
| 2026-05-05 04:25 | 37.71952 | -109.29761 | 29885 ft | 406 kts | 252° |
| 2026-05-05 04:25 | 37.70247 | -109.36573 | 29912 ft | 406 kts | 252° |
| 2026-05-05 04:26 | 37.68542 | -109.43370 | 29932 ft | 407 kts | 252° |
| 2026-05-05 04:26 | 37.66839 | -109.50143 | 29944 ft | 407 kts | 252° |
| 2026-05-05 04:27 | 37.65120 | -109.56953 | 29941 ft | 407 kts | 252° |
| 2026-05-05 04:27 | 37.63397 | -109.63765 | 29915 ft | 407 kts | 252° |
| 2026-05-05 04:28 | 37.61684 | -109.70522 | 29887 ft | 406 kts | 252° |
| 2026-05-05 04:28 | 37.59961 | -109.77294 | 29837 ft | 404 kts | 252° |
| 2026-05-05 04:29 | 37.58239 | -109.84046 | 29832 ft | 404 kts | 252° |
| 2026-05-05 04:29 | 37.56514 | -109.90792 | 29778 ft | 403 kts | 252° |
| 2026-05-05 04:30 | 37.54791 | -109.97512 | 29766 ft | 403 kts | 252° |
| 2026-05-05 04:30 | 37.53066 | -110.04222 | 29765 ft | 402 kts | 252° |
| 2026-05-05 04:31 | 37.51341 | -110.10917 | 29760 ft | 401 kts | 252° |
| 2026-05-05 04:31 | 37.49615 | -110.17594 | 29752 ft | 400 kts | 252° |
| 2026-05-05 04:32 | 37.47890 | -110.24251 | 29736 ft | 400 kts | 252° |
| 2026-05-05 04:32 | 37.46174 | -110.30855 | 29741 ft | 399 kts | 252° |
| 2026-05-05 04:33 | 37.44452 | -110.37469 | 29735 ft | 398 kts | 252° |
| 2026-05-05 04:33 | 37.42720 | -110.44098 | 29735 ft | 398 kts | 252° |
| 2026-05-05 04:34 | 37.40991 | -110.50703 | 29731 ft | 398 kts | 252° |
| 2026-05-05 04:34 | 37.39255 | -110.57313 | 29726 ft | 397 kts | 252° |
| 2026-05-05 04:35 | 37.37521 | -110.63903 | 29725 ft | 397 kts | 252° |
| 2026-05-05 04:35 | 37.35783 | -110.70489 | 29727 ft | 397 kts | 252° |
| 2026-05-05 04:36 | 37.34041 | -110.77076 | 29727 ft | 397 kts | 252° |
| 2026-05-05 04:36 | 37.32299 | -110.83648 | 29745 ft | 396 kts | 252° |
| 2026-05-05 04:37 | 37.30555 | -110.90205 | 29731 ft | 396 kts | 251° |
| 2026-05-05 04:37 | 37.29101 | -110.95657 | 29741 ft | 396 kts | 252° |
| 2026-05-05 04:38 | 37.27348 | -111.02222 | 29737 ft | 396 kts | 251° |
| 2026-05-05 04:38 | 37.25596 | -111.08772 | 29742 ft | 395 kts | 251° |
| 2026-05-05 04:39 | 37.23841 | -111.15317 | 29741 ft | 396 kts | 251° |
| 2026-05-05 04:39 | 37.22131 | -111.21887 | 29722 ft | 396 kts | 257° |
| 2026-05-05 04:40 | 37.21714 | -111.28791 | 29764 ft | 398 kts | 264° |
| 2026-05-05 04:40 | 37.21413 | -111.35671 | 29783 ft | 396 kts | 265° |
| 2026-05-05 04:41 | 37.21131 | -111.42587 | 29778 ft | 398 kts | 264° |
| 2026-05-05 04:41 | 37.20846 | -111.49552 | 29803 ft | 399 kts | 265° |
| 2026-05-05 04:42 | 37.20559 | -111.56499 | 29774 ft | 398 kts | 265° |
| 2026-05-05 04:42 | 37.20267 | -111.63429 | 29780 ft | 399 kts | 264° |
| 2026-05-05 04:43 | 37.19971 | -111.70384 | 29774 ft | 399 kts | 265° |
| 2026-05-05 04:43 | 37.19642 | -111.73819 | 29749 ft | 396 kts | 253° |
| 2026-05-05 04:43 | 37.18776 | -111.77095 | 29777 ft | 397 kts | 252° |
| 2026-05-05 04:44 | 37.17056 | -111.83692 | 29771 ft | 397 kts | 252° |
| 2026-05-05 04:44 | 37.15305 | -111.90228 | 29788 ft | 397 kts | 252° |
| 2026-05-05 04:45 | 37.13530 | -111.96801 | 29790 ft | 398 kts | 251° |
| 2026-05-05 04:45 | 37.11752 | -112.03363 | 29811 ft | 398 kts | 251° |
| 2026-05-05 04:46 | 37.09967 | -112.09938 | 29807 ft | 398 kts | 251° |
| 2026-05-05 04:46 | 37.08180 | -112.16502 | 29812 ft | 399 kts | 251° |
| 2026-05-05 04:47 | 37.06387 | -112.23074 | 29819 ft | 398 kts | 251° |
| 2026-05-05 04:47 | 37.04601 | -112.29602 | 29824 ft | 398 kts | 251° |
| 2026-05-05 04:48 | 37.02804 | -112.36157 | 29822 ft | 398 kts | 251° |
| 2026-05-05 04:48 | 37.01003 | -112.42705 | 29822 ft | 400 kts | 251° |
| 2026-05-05 04:49 | 36.99169 | -112.49363 | 29819 ft | 406 kts | 251° |
| 2026-05-05 04:49 | 36.97326 | -112.56030 | 29818 ft | 405 kts | 251° |
| 2026-05-05 04:50 | 36.95484 | -112.62681 | 29856 ft | 405 kts | 251° |
| 2026-05-05 04:50 | 36.93638 | -112.69328 | 29891 ft | 404 kts | 251° |
| 2026-05-05 04:51 | 36.91800 | -112.75929 | 29929 ft | 404 kts | 251° |
| 2026-05-05 04:51 | 36.89951 | -112.82554 | 29970 ft | 404 kts | 251° |
| 2026-05-05 04:52 | 36.88142 | -112.89020 | 29733 ft | 398 kts | 251° |
| 2026-05-05 04:52 | 36.87227 | -112.92283 | 29521 ft | 398 kts | 251° |
| 2026-05-05 04:52 | 36.86308 | -112.95558 | 29287 ft | 400 kts | 251° |
| 2026-05-05 04:52 | 36.85396 | -112.98805 | 29051 ft | 401 kts | 251° |
| 2026-05-05 04:53 | 36.84461 | -113.02127 | 28815 ft | 403 kts | 251° |
| 2026-05-05 04:53 | 36.83530 | -113.05434 | 28570 ft | 404 kts | 251° |
| 2026-05-05 04:53 | 36.82593 | -113.08755 | 28183 ft | 408 kts | 251° |
| 2026-05-05 04:53 | 36.81640 | -113.12131 | 27779 ft | 413 kts | 251° |
| 2026-05-05 04:54 | 36.80685 | -113.15507 | 27372 ft | 416 kts | 250° |
| 2026-05-05 04:54 | 36.79716 | -113.18931 | 26971 ft | 418 kts | 250° |
| 2026-05-05 04:54 | 36.78751 | -113.22336 | 26584 ft | 420 kts | 250° |
| 2026-05-05 04:54 | 36.77772 | -113.25785 | 26181 ft | 422 kts | 250° |
| 2026-05-05 04:55 | 36.76791 | -113.29240 | 25795 ft | 424 kts | 250° |
| 2026-05-05 04:55 | 36.75799 | -113.32725 | 25386 ft | 426 kts | 250° |
| 2026-05-05 04:55 | 36.74809 | -113.36200 | 25036 ft | 425 kts | 250° |
| 2026-05-05 04:55 | 36.73820 | -113.39668 | 24681 ft | 424 kts | 250° |
| 2026-05-05 04:56 | 36.73006 | -113.42521 | 24397 ft | 423 kts | 250° |
| 2026-05-05 04:56 | 36.72036 | -113.45926 | 24013 ft | 422 kts | 250° |
| 2026-05-05 04:56 | 36.71067 | -113.49331 | 23640 ft | 410 kts | 249° |
| 2026-05-05 04:56 | 36.70128 | -113.52627 | 23248 ft | 398 kts | 249° |
| 2026-05-05 04:57 | 36.69201 | -113.55878 | 22796 ft | 397 kts | 249° |
| 2026-05-05 04:57 | 36.68276 | -113.59118 | 22328 ft | 397 kts | 249° |
| 2026-05-05 04:57 | 36.67351 | -113.62351 | 21877 ft | 397 kts | 249° |
| 2026-05-05 04:57 | 36.66423 | -113.65596 | 21425 ft | 397 kts | 249° |
| 2026-05-05 04:58 | 36.65494 | -113.68837 | 20978 ft | 397 kts | 249° |
| 2026-05-05 04:58 | 36.64561 | -113.72088 | 20530 ft | 398 kts | 249° |
| 2026-05-05 04:58 | 36.63631 | -113.75328 | 20087 ft | 398 kts | 249° |
| 2026-05-05 04:58 | 36.62694 | -113.78584 | 19658 ft | 399 kts | 249° |
| 2026-05-05 04:59 | 36.61758 | -113.81837 | 19222 ft | 400 kts | 249° |
| 2026-05-05 04:59 | 36.60819 | -113.85094 | 18773 ft | 401 kts | 248° |
| 2026-05-05 04:59 | 36.59870 | -113.88380 | 18338 ft | 402 kts | 248° |
| 2026-05-05 04:59 | 36.58811 | -113.91589 | 17864 ft | 400 kts | 238° |
| 2026-05-05 05:00 | 36.57205 | -113.94398 | 17382 ft | 397 kts | 232° |
| 2026-05-05 05:00 | 36.55554 | -113.97135 | 16922 ft | 395 kts | 231° |
| 2026-05-05 05:00 | 36.53910 | -113.99824 | 16859 ft | 395 kts | 231° |
| 2026-05-05 05:00 | 36.52262 | -114.02496 | 16897 ft | 380 kts | 231° |
| 2026-05-05 05:01 | 36.50688 | -114.05038 | 16907 ft | 364 kts | 231° |
| 2026-05-05 05:01 | 36.49165 | -114.07491 | 16766 ft | 352 kts | 230° |
| 2026-05-05 05:01 | 36.47684 | -114.09874 | 16608 ft | 342 kts | 230° |
| 2026-05-05 05:01 | 36.46249 | -114.12181 | 16464 ft | 332 kts | 230° |
| 2026-05-05 05:02 | 36.44853 | -114.14423 | 16307 ft | 323 kts | 230° |
| 2026-05-05 05:02 | 36.43497 | -114.16600 | 16157 ft | 315 kts | 230° |
| 2026-05-05 05:02 | 36.42170 | -114.18728 | 16002 ft | 308 kts | 230° |
| 2026-05-05 05:02 | 36.40869 | -114.20816 | 15896 ft | 306 kts | 230° |
| 2026-05-05 05:03 | 36.39563 | -114.22901 | 15883 ft | 306 kts | 229° |
| 2026-05-05 05:03 | 36.38242 | -114.24974 | 15876 ft | 306 kts | 229° |
| 2026-05-05 05:03 | 36.36915 | -114.27058 | 15599 ft | 309 kts | 230° |
| 2026-05-05 05:03 | 36.35582 | -114.29150 | 15221 ft | 309 kts | 230° |
| 2026-05-05 05:04 | 36.34251 | -114.31239 | 14820 ft | 310 kts | 229° |
| 2026-05-05 05:04 | 36.32930 | -114.33312 | 14421 ft | 305 kts | 229° |
| 2026-05-05 05:04 | 36.31627 | -114.35356 | 14042 ft | 301 kts | 229° |
| 2026-05-05 05:04 | 36.30328 | -114.37391 | 13661 ft | 300 kts | 229° |
| 2026-05-05 05:05 | 36.29032 | -114.39420 | 13252 ft | 299 kts | 229° |
| 2026-05-05 05:05 | 36.27744 | -114.41437 | 12838 ft | 297 kts | 229° |
| 2026-05-05 05:05 | 36.26495 | -114.43393 | 12415 ft | 295 kts | 229° |
| 2026-05-05 05:05 | 36.25185 | -114.45426 | 11990 ft | 293 kts | 228° |
| 2026-05-05 05:06 | 36.23937 | -114.47340 | 11661 ft | 288 kts | 228° |
| 2026-05-05 05:06 | 36.22677 | -114.49273 | 11375 ft | 287 kts | 228° |
| 2026-05-05 05:06 | 36.21420 | -114.51203 | 11102 ft | 286 kts | 229° |
| 2026-05-05 05:06 | 36.20172 | -114.53117 | 10833 ft | 285 kts | 228° |
| 2026-05-05 05:07 | 36.18930 | -114.55020 | 10557 ft | 284 kts | 228° |
| 2026-05-05 05:07 | 36.17692 | -114.56917 | 10300 ft | 281 kts | 228° |
| 2026-05-05 05:07 | 36.16487 | -114.58762 | 10048 ft | 272 kts | 228° |
| 2026-05-05 05:07 | 36.15307 | -114.60565 | 9787 ft | 267 kts | 229° |
| 2026-05-05 05:08 | 36.14148 | -114.62337 | 9566 ft | 263 kts | 228° |
| 2026-05-05 05:08 | 36.12993 | -114.64099 | 9289 ft | 262 kts | 228° |
| 2026-05-05 05:08 | 36.11861 | -114.65827 | 9016 ft | 262 kts | 228° |
| 2026-05-05 05:08 | 36.10720 | -114.67568 | 8742 ft | 260 kts | 228° |
| 2026-05-05 05:09 | 36.09584 | -114.69301 | 8474 ft | 258 kts | 228° |
| 2026-05-05 05:09 | 36.08453 | -114.71023 | 8205 ft | 257 kts | 228° |
| 2026-05-05 05:09 | 36.07512 | -114.72884 | 7923 ft | 257 kts | 248° |
| 2026-05-05 05:09 | 36.07327 | -114.75063 | 7665 ft | 249 kts | 266° |
| 2026-05-05 05:10 | 36.07336 | -114.76396 | 7494 ft | 243 kts | 265° |
| 2026-05-05 05:10 | 36.07338 | -114.77052 | 7395 ft | 241 kts | 265° |
| 2026-05-05 05:10 | 36.07343 | -114.79163 | 7094 ft | 234 kts | 265° |
| 2026-05-05 05:10 | 36.07348 | -114.81153 | 6802 ft | 229 kts | 266° |
| 2026-05-05 05:11 | 36.07351 | -114.83108 | 6534 ft | 226 kts | 265° |
| 2026-05-05 05:11 | 36.07356 | -114.85003 | 6235 ft | 215 kts | 265° |
| 2026-05-05 05:11 | 36.07358 | -114.86800 | 5952 ft | 202 kts | 265° |
| 2026-05-05 05:11 | 36.07360 | -114.88493 | 5673 ft | 192 kts | 265° |
| 2026-05-05 05:12 | 36.07362 | -114.90100 | 5417 ft | 183 kts | 266° |
| 2026-05-05 05:12 | 36.07364 | -114.91650 | 5177 ft | 178 kts | 267° |
| 2026-05-05 05:12 | 36.07365 | -114.93171 | 4956 ft | 175 kts | 267° |
| 2026-05-05 05:12 | 36.07367 | -114.94670 | 4744 ft | 172 kts | 267° |
| 2026-05-05 05:13 | 36.07368 | -114.96057 | 4500 ft | 153 kts | 266° |
| 2026-05-05 05:13 | 36.07368 | -114.97325 | 4263 ft | 143 kts | 266° |
| 2026-05-05 05:13 | 36.07369 | -114.98542 | 4030 ft | 141 kts | 266° |
| 2026-05-05 05:13 | 36.07368 | -114.99745 | 3868 ft | 139 kts | 266° |
| 2026-05-05 05:14 | 36.07369 | -115.00941 | 3827 ft | 138 kts | 268° |
| 2026-05-05 05:14 | 36.07369 | -115.02120 | 3824 ft | 137 kts | 267° |
| 2026-05-05 05:14 | 36.07371 | -115.03288 | 3658 ft | 137 kts | 267° |
| 2026-05-05 05:14 | 36.07371 | -115.04473 | 3472 ft | 136 kts | 267° |
| 2026-05-05 05:15 | 36.07370 | -115.05631 | 3302 ft | 136 kts | 267° |
| 2026-05-05 05:15 | 36.07369 | -115.06797 | 3083 ft | 136 kts | 266° |
| 2026-05-05 05:15 | 36.07368 | -115.07897 | 2916 ft | 139 kts | 268° |
| 2026-05-05 05:15 | 36.07377 | -115.09108 | 2756 ft | 142 kts | 267° |
| 2026-05-05 05:16 | 36.07374 | -115.10324 | 2493 ft | 141 kts | 265° |
| 2026-05-05 05:16 | 36.07375 | -115.11548 | 2395 ft | 142 kts | 269° |
| 2026-05-05 05:16 | 36.07376 | -115.12734 | 2210 ft | 132 kts | 268° |
| 2026-05-05 05:16 | 36.07367 | -115.13665 | 2189 ft | 98 kts | 269° |
| 2026-05-05 05:17 | 36.07367 | -115.14222 | 2193 ft | 37 kts | 273° |
| 2026-05-05 05:17 | 36.07399 | -115.14409 | 2196 ft | 20 kts | 289° |
| 2026-05-05 05:17 | 36.07466 | -115.14573 | 2192 ft | 20 kts | 301° |
| 2026-05-05 05:17 | 36.07524 | -115.14659 | 2192 ft | 18 kts | 323° |
| 2026-05-05 05:18 | 36.07646 | -115.14663 | 2192 ft | 18 kts | 4° |
| 2026-05-05 05:18 | 36.07754 | -115.14673 | 2193 ft | 3 kts | 336° |
| 2026-05-05 05:18 | 36.07764 | -115.14680 | 2193 ft | 3 kts | 330° |
| 2026-05-05 05:18 | 36.07790 | -115.14691 | 2192 ft | 5 kts | 347° |
| 2026-05-05 05:19 | 36.07836 | -115.14700 | 2192 ft | 9 kts | 346° |
| 2026-05-05 05:19 | 36.07914 | -115.14698 | 2191 ft | 14 kts | 25° |
| 2026-05-05 05:19 | 36.07943 | -115.14679 | 2191 ft | 2 kts | 28° |
| 2026-05-05 05:19 | 36.07953 | -115.14673 | 2193 ft | 1 kts | 27° |
| 2026-05-05 05:20 | 36.07956 | -115.14671 | 2192 ft | 0 kts | 27° |
| 2026-05-05 05:20 | 36.07956 | -115.14670 | 2192 ft | 0 kts | 27° |
| 2026-05-05 05:22 | 36.07956 | -115.14671 | 2190 ft | 0 kts | 27° |